Latest Weather Observations for Rottnest Island

IDW60901

Issued at 9:11 pm WST Thursday 11 February 2016 (issued every 10 minutes, with the page automatically refreshed every 10 minutes)

About weather observations | Map of Perth area stations | Latest observations for Perth area | Other Formats
Station Details ID: 009193 Name: ROTTNEST ISLAND Lat: -32.01 Lon: 115.50 Height: 43.1 m
Data from the previous 72 hours. | See also: Recent months at Rottnest Island
Date/Time
WST
Tmp

°C
App
Tmp
°C
Dew
Point
°C
Rel
Hum
%
Delta-T

°C
Wind Press
QNH
hPa
Press
MSL
hPa
Rain
since
9 am
mm
Dir
 
Spd
km/h
Gust
km/h
Spd
kts
Gust
kts
11/09:00pm 21.5 17.7 19.8 90 1.1 SSW 39 46 21 25 1014.3 1014.1 0.0
11/08:30pm 21.6 19.0 19.9 90 1.1 SSW 33 43 18 23 1014.1 1013.9 0.0
11/08:00pm 21.6 18.9 19.7 89 1.2 SSW 33 41 18 22 1013.8 1013.6 0.0
11/07:30pm 21.8 19.1 19.7 88 1.3 SSW 33 43 18 23 1013.5 1013.3 0.0
11/07:00pm 22.0 19.4 19.5 86 1.6 SSW 32 37 17 20 1013.2 1013.0 0.0
11/06:30pm 22.6 20.0 19.6 83 1.9 SSW 32 41 17 22 1012.9 1012.7 0.0
11/06:00pm 23.1 20.5 19.5 80 2.3 SSW 32 39 17 21 1012.5 1012.3 0.0
11/05:30pm 23.7 21.1 19.4 77 2.8 SW 32 39 17 21 1012.1 1011.9 0.0
11/05:00pm 24.0 21.4 19.5 76 2.9 SSW 32 39 17 21 1011.7 1011.5 0.0
11/04:30pm 24.6 22.1 19.7 74 3.2 SW 32 39 17 21 1011.6 1011.4 0.0
11/04:00pm 24.3 21.7 19.4 74 3.1 SW 32 35 17 19 1011.6 1011.4 0.0
11/03:30pm 25.6 24.0 20.8 75 3.2 SW 30 35 16 19 1011.6 1011.4 0.0
11/03:00pm 25.0 23.9 20.3 75 3.1 SSW 26 32 14 17 1012.0 1011.8 0.0
11/02:30pm 26.0 25.0 21.2 75 3.2 SW 28 35 15 19 1012.2 1012.0 0.0
11/02:00pm 25.5 24.9 20.5 74 3.3 SSW 24 32 13 17 1012.4 1012.2 0.0
11/01:30pm 26.0 26.0 21.0 74 3.3 SSW 22 26 12 14 1012.4 1012.2 0.0
11/01:00pm 25.1 24.2 20.6 76 2.9 SW 26 32 14 17 1012.8 1012.6 0.0
11/12:30pm 26.2 26.5 20.8 72 3.6 SW 20 26 11 14 1012.8 1012.6 0.0
11/12:00pm 26.3 27.1 20.6 71 3.7 WSW 17 20 9 11 1013.0 1012.8 0.0
11/11:30am 26.1 26.9 20.7 72 3.6 WSW 17 20 9 11 1013.1 1012.9 0.0
11/11:00am 24.8 26.1 20.9 79 2.6 WNW 15 20 8 11 1013.4 1013.2 0.0
11/10:30am 23.6 24.3 20.5 83 2.0 WNW 17 22 9 12 1013.3 1013.1 0.0
11/10:00am 23.4 24.0 21.1 87 1.5 W 19 24 10 13 1013.3 1013.1 0.0
11/09:30am 23.2 24.2 21.8 92 0.9 W 19 22 10 12 1013.5 1013.3 0.0
11/09:00am 23.4 25.8 22.9 97 0.3 WNW 15 17 8 9 1013.4 1013.2 0.2
11/08:30am 22.7 25.7 22.7 100 0.0 WNW 11 19 6 10 1013.3 1013.1 0.2
11/08:00am 22.3 25.1 22.3 100 0.0 W 11 15 6 8 1013.3 1013.1 0.2
11/07:30am 22.4 24.9 22.4 100 0.0 W 13 19 7 10 1012.9 1012.7 0.2
11/07:00am 22.1 24.4 22.1 100 0.0 W 13 17 7 9 1012.9 1012.7 0.2
11/06:30am 21.5 24.3 21.5 100 0.0 W 9 13 5 7 1012.5 1012.3 0.2
11/06:00am 21.2 23.8 21.2 100 0.0 W 9 15 5 8 1012.3 1012.1 0.2
11/05:30am 21.1 23.6 21.1 100 0.0 WSW 9 15 5 8 1012.0 1011.8 0.2
11/05:00am 21.4 23.0 21.4 100 0.0 SW 15 17 8 9 1011.7 1011.5 0.2
11/04:30am 21.5 22.7 21.5 100 0.0 S 17 17 9 9 1011.0 1010.8 0.2
11/04:00am 21.4 23.0 21.4 100 0.0 SSW 15 17 8 9 1011.3 1011.1 0.0
11/03:30am 21.0 22.3 20.8 99 0.1 SW 15 17 8 9 1011.4 1011.2 0.0
11/03:00am 21.4 23.2 21.2 99 0.1 SW 13 15 7 8 1011.2 1011.0 0.0
11/02:30am 21.6 22.8 21.4 99 0.1 SW 17 19 9 10 1011.4 1011.2 0.0
11/02:00am 21.6 23.2 21.4 99 0.1 SW 15 17 8 9 1011.8 1011.6 0.0
11/01:30am 22.0 23.0 21.8 99 0.1 SSW 19 20 10 11 1011.8 1011.6 0.0
11/01:00am 22.0 22.8 21.7 98 0.2 SSW 20 22 11 12 1011.9 1011.7 0.0
11/12:30am 22.2 22.5 21.5 96 0.5 SSW 22 26 12 14 1011.9 1011.7 0.0
11/12:00am 22.3 22.9 21.3 94 0.7 S 20 26 11 14 1012.3 1012.1 0.0
 
Date/Time
WST
Tmp

°C
App
Tmp
°C
Dew
Point
°C
Rel
Hum
%
Delta-T

°C
Wind Press
QNH
hPa
Press
MSL
hPa
Rain
since
9 am
mm
Dir
 
Spd
km/h
Gust
km/h
Spd
kts
Gust
kts
10/11:30pm 22.3 22.8 20.9 92 0.9 SSW 19 20 10 11 1012.4 1012.2 0.0
10/11:00pm 22.4 22.9 20.9 91 1.0 SW 19 20 10 11 1012.6 1012.4 0.0
10/10:30pm 22.7 23.3 21.0 90 1.1 SSW 19 22 10 12 1013.1 1012.9 0.0
10/10:00pm 22.6 23.1 20.9 90 1.1 S 19 22 10 12 1013.2 1013.0 0.0
10/09:30pm 22.9 23.2 20.8 88 1.4 SSW 20 24 11 13 1013.1 1012.9 0.0
10/09:00pm 22.9 23.1 20.6 87 1.5 SSW 20 24 11 13 1013.1 1012.9 0.0
10/08:30pm 23.1 22.0 20.2 84 1.9 SSW 26 32 14 17 1012.8 1012.6 0.0
10/08:00pm 23.6 21.9 19.9 80 2.4 SSW 28 35 15 19 1012.4 1012.2 0.0
10/07:30pm 23.8 22.4 19.7 78 2.6 SSW 26 30 14 16 1012.2 1012.0 0.0
10/07:00pm 24.3 23.2 19.4 74 3.1 SSW 24 28 13 15 1012.0 1011.8 0.0
10/06:30pm 25.1 24.5 19.7 72 3.5 S 22 26 12 14 1011.8 1011.6 0.0
10/06:00pm 25.3 25.3 20.1 73 3.4 S 20 26 11 14 1011.8 1011.6 0.0
10/05:30pm 25.7 24.6 20.3 72 3.5 SSW 26 30 14 16 1011.6 1011.4 0.0
10/05:00pm 26.0 24.2 20.3 71 3.7 SSW 30 33 16 18 1011.5 1011.3 0.0
10/04:30pm 26.7 25.0 19.8 66 4.5 SSW 28 33 15 18 1011.4 1011.2 0.0
10/04:00pm 27.2 24.5 18.5 59 5.6 SSW 30 37 16 20 1011.4 1011.2 0.0
10/03:30pm 27.7 24.2 16.6 50 6.9 SSW 30 37 16 20 1011.4 1011.2 0.0
10/03:00pm 27.6 23.5 14.9 45 7.7 SSW 30 35 16 19 1011.7 1011.5 0.0
10/02:30pm 28.9 27.0 16.8 48 7.6 SSW 22 28 12 15 1012.1 1011.9 0.0
10/02:00pm 29.0 26.4 15.9 45 8.1 SW 24 28 13 15 1012.3 1012.1 0.0
10/01:30pm 29.7 28.0 17.2 47 7.9 SW 22 28 12 15 1012.6 1012.4 0.0
10/01:00pm 30.9 28.5 14.5 37 10.0 SW 20 24 11 13 1012.7 1012.5 0.0
10/12:30pm 33.2 30.3 11.1 26 12.9 W 17 20 9 11 1012.9 1012.7 0.0
10/12:00pm 33.2 30.5 10.5 25 13.1 NW 15 17 8 9 1013.0 1012.8 0.0
10/11:30am 32.6 30.5 11.2 27 12.5 NW 13 19 7 10 1013.3 1013.1 0.0
10/11:00am 31.1 29.8 12.5 32 11.0 NNW 11 20 6 11 1013.4 1013.2 0.0
10/10:30am 31.2 29.9 11.1 29 11.6 NE 9 13 5 7 1013.5 1013.3 0.0
10/10:00am 29.7 28.5 11.7 33 10.5 NE 9 13 5 7 1013.5 1013.3 0.0
10/09:30am 29.6 29.6 14.2 39 9.3 NE 7 11 4 6 1013.9 1013.7 0.0
10/09:00am 28.4 28.2 15.7 46 7.8 NNE 11 13 6 7 1014.0 1013.8 0.0
10/08:30am 27.8 28.1 16.1 49 7.2 NE 9 13 5 7 1014.1 1013.9 0.0
10/08:00am 26.2 27.3 18.1 61 5.1 E 9 13 5 7 1014.0 1013.8 0.0
10/07:30am 25.1 27.6 21.0 78 2.7 SE 9 11 5 6 1014.0 1013.8 0.0
10/07:00am 24.2 27.2 21.9 87 1.5 SSE 9 11 5 6 1013.9 1013.7 0.0
10/06:30am 23.0 25.8 21.6 92 0.9 S 9 11 5 6 1013.8 1013.6 0.0
10/06:00am 22.8 25.5 22.1 96 0.5 SSW 11 13 6 7 1013.6 1013.4 0.0
10/05:30am 22.8 25.1 22.0 95 0.5 SSW 13 15 7 8 1013.2 1013.0 0.0
10/05:00am 22.5 24.2 21.0 91 1.0 SW 13 15 7 8 1012.8 1012.6 0.0
10/04:30am 23.3 26.3 20.8 86 1.6 W 6 9 3 5 1012.5 1012.3 0.0
10/04:00am 23.5 26.6 21.0 86 1.6 NNW 6 6 3 3 1012.4 1012.2 0.0
10/03:30am 23.1 27.5 21.4 90 1.1 CALM 0 0 0 0 1012.3 1012.1 0.0
10/03:00am 22.4 26.1 21.4 94 0.7 NNW 4 9 2 5 1012.1 1011.9 0.0
10/02:30am 22.2 25.0 20.8 92 0.9 ESE 7 11 4 6 1012.2 1012.0 0.0
10/02:00am 23.1 25.9 22.3 95 0.5 S 11 13 6 7 1012.2 1012.0 0.0
10/01:30am 22.8 25.1 22.0 95 0.5 SSE 13 15 7 8 1012.4 1012.2 0.0
10/01:00am 22.8 24.3 22.0 95 0.5 S 17 19 9 10 1012.5 1012.3 0.0
10/12:30am 23.0 24.4 21.8 93 0.8 SSE 17 19 9 10 1012.6 1012.4 0.0
10/12:00am 23.0 23.7 21.6 92 0.9 S 20 24 11 13 1012.9 1012.7 0.0
 
Date/Time
WST
Tmp

°C
App
Tmp
°C
Dew
Point
°C
Rel
Hum
%
Delta-T

°C
Wind Press
QNH
hPa
Press
MSL
hPa
Rain
since
9 am
mm
Dir
 
Spd
km/h
Gust
km/h
Spd
kts
Gust
kts
09/11:30pm 23.0 23.7 21.5 91 1.0 S 20 22 11 12 1013.0 1012.8 0.0
09/11:00pm 23.0 23.6 21.3 90 1.1 S 20 24 11 13 1013.2 1013.0 0.0
09/10:30pm 23.0 23.5 21.1 89 1.2 SSW 20 26 11 14 1013.4 1013.2 0.0
09/10:00pm 23.1 23.2 20.4 85 1.8 SSW 20 24 11 13 1013.4 1013.2 0.0
09/09:30pm 23.2 22.7 20.0 82 2.1 SSW 22 26 12 14 1013.2 1013.0 0.0
09/09:00pm 23.2 22.1 20.2 83 1.9 SSW 26 30 14 16 1013.0 1012.8 0.0
09/08:30pm 23.4 22.3 20.3 83 2.0 SSW 26 32 14 17 1013.0 1012.8 0.0
09/08:00pm 23.6 22.8 20.1 81 2.3 SSW 24 28 13 15 1013.0 1012.8 0.0
09/07:30pm 23.8 23.0 19.3 76 2.9 SSW 22 26 12 14 1012.9 1012.7 0.0
09/07:00pm 24.6 24.2 19.4 73 3.3 S 20 24 11 13 1012.9 1012.7 0.0
09/06:30pm 25.2 23.9 19.1 69 3.9 S 24 28 13 15 1012.7 1012.5 0.0
09/06:00pm 25.3 24.2 19.4 70 3.8 S 24 28 13 15 1012.6 1012.4 0.0
09/05:30pm 25.7 25.0 20.3 72 3.5 S 24 30 13 16 1012.7 1012.5 0.0
09/05:00pm 25.8 24.8 19.7 69 4.0 SSW 24 32 13 17 1012.7 1012.5 0.0
09/04:30pm 26.3 25.6 20.2 69 4.0 S 24 28 13 15 1012.6 1012.4 0.0
09/04:00pm 27.6 26.3 19.1 59 5.5 SSW 24 32 13 17 1012.7 1012.5 0.0
09/03:30pm 29.7 27.7 16.5 45 8.3 SW 22 28 12 15 1012.7 1012.5 0.0
09/03:00pm 32.9 30.4 14.0 32 11.5 SW 20 26 11 14 1012.9 1012.7 0.0
09/02:53pm 32.1 30.0 15.1 35 10.5 SW 20 26 11 14 1013.0 1012.8 0.0
09/02:30pm 37.1 31.8 3.0 12 17.9 W 20 28 11 15 1013.0 1012.8 0.0
09/02:00pm 36.9 31.2 2.8 12 17.8 W 22 28 12 15 1013.3 1013.1 0.0
09/01:30pm 36.0 30.2 2.1 12 17.4 WNW 22 30 12 16 1013.5 1013.3 0.0
09/01:00pm 37.3 31.6 3.1 12 18.0 NW 22 28 12 15 1013.6 1013.4 0.0
09/12:30pm 35.9 30.1 2.1 12 17.4 NW 22 26 12 14 1013.9 1013.7 0.0
09/12:00pm 36.0 30.4 3.3 13 17.1 NW 22 28 12 15 1014.1 1013.9 0.0
09/11:30am 34.7 29.3 4.3 15 16.1 NW 22 26 12 14 1014.6 1014.4 0.0
09/11:00am 33.6 28.7 4.3 16 15.4 NNW 19 24 10 13 1014.9 1014.7 0.0
09/10:30am 33.7 28.7 3.5 15 15.7 N 19 24 10 13 1015.0 1014.8 0.0
09/10:00am 32.9 27.8 2.9 15 15.3 N 19 24 10 13 1015.1 1014.9 0.0
09/09:30am 33.8 29.7 4.5 16 15.5 NNE 15 17 8 9 1015.0 1014.8 0.0
09/09:00am 32.3 27.8 4.2 17 14.6 NE 17 22 9 12 1014.7 1014.5 0.0
09/08:30am 31.7 27.1 3.7 17 14.4 NE 17 22 9 12 1014.7 1014.5 0.0
09/08:00am 31.0 26.6 4.7 19 13.7 NE 17 20 9 11 1014.7 1014.5 0.0
09/07:30am 29.8 26.1 6.5 23 12.4 NE 15 19 8 10 1014.7 1014.5 0.0
09/07:00am 29.2 25.4 6.0 23 12.2 ENE 15 17 8 9 1014.4 1014.2 0.0
09/06:30am 28.4 24.6 5.9 24 11.8 ENE 15 17 8 9 1014.1 1013.9 0.0
09/06:00am 28.0 25.1 6.7 26 11.3 NE 11 15 6 8 1014.0 1013.8 0.0
09/05:30am 28.9 24.9 5.1 22 12.3 NE 15 17 8 9 1013.5 1013.3 0.0
09/05:00am 28.0 24.0 6.7 26 11.3 ENE 17 20 9 11 1013.1 1012.9 0.0
09/04:30am 27.7 23.4 7.0 27 11.0 ENE 19 22 10 12 1012.8 1012.6 0.0
09/04:00am 28.3 24.4 7.0 26 11.4 ENE 17 20 9 11 1012.8 1012.6 0.0
09/03:30am 27.9 23.6 7.2 27 11.1 E 19 22 10 12 1012.5 1012.3 0.0
09/03:00am 28.3 24.5 7.5 27 11.2 E 17 19 9 10 1012.4 1012.2 0.0
09/02:30am 28.6 25.0 8.3 28 11.1 ESE 17 19 9 10 1012.4 1012.2 0.0
09/02:00am 29.5 25.8 8.0 26 11.8 ESE 17 20 9 11 1012.7 1012.5 0.0
09/01:30am 28.9 25.4 8.6 28 11.2 SE 17 20 9 11 1012.9 1012.7 0.0
09/01:00am 28.7 24.7 10.4 32 10.4 SE 22 26 12 14 1013.1 1012.9 0.0
09/12:30am 28.4 25.1 11.0 34 9.9 SE 19 22 10 12 1013.6 1013.4 0.0
09/12:00am 30.6 26.3 7.1 23 12.7 ESE 19 24 10 13 1013.8 1013.6 0.0
 
Date/Time
WST
Tmp

°C
App
Tmp
°C
Dew
Point
°C
Rel
Hum
%
Delta-T

°C
Wind Press
QNH
hPa
Press
MSL
hPa
Rain
since
9 am
mm
Dir
 
Spd
km/h
Gust
km/h
Spd
kts
Gust
kts
08/11:30pm 30.2 26.0 9.7 28 11.6 SE 22 26 12 14 1013.9 1013.7 0.0
08/11:00pm 30.2 26.1 10.2 29 11.4 SE 22 26 12 14 1014.2 1014.0 0.0
08/10:30pm 29.6 25.8 11.2 32 10.6 SE 22 26 12 14 1014.2 1014.0 0.0
08/10:00pm 28.3 25.2 15.6 46 7.8 SE 26 33 14 18 1014.2 1014.0 0.0
08/09:30pm 28.0 25.7 15.6 46 7.6 SE 22 28 12 15 1014.2 1014.0 0.0

Latest Capital City Observations: Canberra | Sydney | Melbourne | Brisbane | Adelaide | Perth | Hobart | Darwin

Other Formats:

Comma delimited format used in spreadsheet applications
http://www.bom.gov.au/fwo/IDW60901/IDW60901.94602.axf

JavaScript Object Notation format (JSON) in row-major order
http://www.bom.gov.au/fwo/IDW60901/IDW60901.94602.json